Time;durP1;ratioP1;P1;durP2;ratioP2;P2;SDS_P1;SDS_P2;PMS_P1;PMS_P2;Temp;Humidity;BMP_temperature;BMP_pressure;BME280_temperature;BME280_humidity;BME280_pressure;Samples;Min_cycle;Max_cycle;Signal;HPM_P1;HPM_P2
2022/08/23 00:01:00;;;;;;;15.20;9.07;;;;;;;17.60;100.00;99847.91;5551138;32;33985;-73
2022/08/23 00:04:08;;;;;;;11.12;8.85;;;;;;;17.63;100.00;99845.56;5551150;32;34189;-73
2022/08/23 00:07:14;;;;;;;11.18;9.25;;;;;;;17.59;100.00;99849.75;5551227;32;34410;-73
2022/08/23 00:10:17;;;;;;;12.30;9.40;;;;;;;17.59;100.00;99851.63;5551079;32;34656;-73
2022/08/23 00:13:20;;;;;;;13.35;9.65;;;;;;;17.63;100.00;99856.28;5550917;32;34228;-73
2022/08/23 00:16:23;;;;;;;13.93;9.50;;;;;;;17.70;100.00;99848.19;5551061;32;34381;-73
2022/08/23 00:19:26;;;;;;;13.35;9.05;;;;;;;17.67;100.00;99857.47;5550969;32;34042;-72
2022/08/23 00:22:29;;;;;;;10.65;7.80;;;;;;;17.60;100.00;99845.22;5550927;32;34573;-73
2022/08/23 00:25:31;;;;;;;11.75;8.63;;;;;;;17.57;100.00;99843.75;5550011;32;33997;-73
2022/08/23 00:28:34;;;;;;;10.25;8.40;;;;;;;17.76;100.00;99850.78;5551007;32;33973;-72
2022/08/23 00:31:37;;;;;;;11.30;8.48;;;;;;;17.76;100.00;99858.00;5550932;32;34063;-72
2022/08/23 00:34:40;;;;;;;14.00;8.23;;;;;;;17.79;100.00;99844.94;5551259;32;34405;-72
2022/08/23 00:37:43;;;;;;;10.15;7.68;;;;;;;17.78;100.00;99850.53;5550790;32;34668;-72
2022/08/23 00:40:53;;;;;;;10.73;8.40;;;;;;;17.73;100.00;99851.22;5550122;32;32647;-72
2022/08/23 00:47:40;;;;;;;10.85;7.65;;;;;;;17.76;100.00;99855.31;5533362;32;34057;-71
2022/08/23 00:50:55;;;;;;;10.57;8.45;;;;;;;17.83;100.00;99860.59;5551174;32;33988;-72
2022/08/23 00:54:00;;;;;;;13.27;8.82;;;;;;;17.77;100.00;99854.25;5550737;32;34353;-72
2022/08/23 00:57:09;;;;;;;12.88;8.75;;;;;;;17.78;100.00;99866.63;5551006;32;34267;-72
2022/08/23 01:00:13;;;;;;;11.90;8.05;;;;;;;17.78;100.00;99880.03;5550798;32;33989;-72
2022/08/23 01:03:18;;;;;;;12.48;8.88;;;;;;;17.80;100.00;99876.09;5550593;32;34715;-72
2022/08/23 01:06:37;;;;;;;11.90;8.82;;;;;;;17.82;100.00;99867.81;5550645;32;34495;-72
2022/08/23 01:09:42;;;;;;;12.18;8.60;;;;;;;17.87;100.00;99872.50;5550579;32;35164;-72
2022/08/23 01:12:51;;;;;;;13.73;8.80;;;;;;;17.89;100.00;99878.47;5550488;32;34076;-72
2022/08/23 01:16:04;;;;;;;11.63;9.03;;;;;;;17.86;100.00;99877.06;5549666;32;34195;-72
2022/08/23 01:19:33;;;;;;;12.57;7.90;;;;;;;17.91;100.00;99887.13;5550395;32;33971;-72
2022/08/23 01:22:57;;;;;;;9.93;7.75;;;;;;;17.94;100.00;99881.28;5549361;32;32923;-72
2022/08/23 01:26:01;;;;;;;11.95;8.27;;;;;;;18.09;100.00;99887.06;5550472;32;34626;-72
2022/08/23 01:29:05;;;;;;;9.85;7.87;;;;;;;18.03;100.00;99891.47;5550671;32;33883;-72
2022/08/23 01:32:09;;;;;;;11.65;8.40;;;;;;;18.01;100.00;99884.72;5550411;32;33860;-72
2022/08/23 01:35:12;;;;;;;10.18;7.95;;;;;;;18.02;100.00;99889.81;5550136;32;33966;-72
2022/08/23 01:38:15;;;;;;;10.60;7.57;;;;;;;18.02;100.00;99889.81;5550200;32;34539;-72
2022/08/23 01:41:18;;;;;;;9.98;7.22;;;;;;;18.10;100.00;99896.75;5550214;32;34770;-72
2022/08/23 01:44:21;;;;;;;13.57;8.02;;;;;;;18.18;100.00;99897.25;5550520;32;33939;-72
2022/08/23 01:47:28;;;;;;;10.85;8.23;;;;;;;18.09;100.00;99909.37;5550063;32;34136;-72
2022/08/23 01:50:32;;;;;;;12.77;7.18;;;;;;;18.07;100.00;99899.88;5550193;32;34580;-72
2022/08/23 01:53:35;;;;;;;11.90;7.20;;;;;;;18.07;100.00;99900.69;5550144;32;34648;-71
2022/08/23 01:56:39;;;;;;;12.25;7.68;;;;;;;18.09;100.00;99903.16;5550050;32;34588;-71
2022/08/23 01:59:42;;;;;;;11.50;7.80;;;;;;;18.22;100.00;99921.75;5550101;32;34250;-71
2022/08/23 02:02:45;;;;;;;8.38;7.10;;;;;;;18.33;100.00;99912.13;5549205;32;33936;-71
2022/08/23 02:05:49;;;;;;;10.32;7.35;;;;;;;18.36;100.00;99911.66;5550173;32;34051;-70
2022/08/23 02:09:03;;;;;;;9.90;7.72;;;;;;;18.36;100.00;99904.41;5549750;32;35266;-71
2022/08/23 02:12:06;;;;;;;10.77;7.47;;;;;;;18.24;100.00;99906.25;5549628;32;34076;-71
2022/08/23 02:15:09;;;;;;;12.13;8.18;;;;;;;18.15;100.00;99913.78;5549800;32;34561;-71
2022/08/23 02:18:13;;;;;;;12.80;8.02;;;;;;;18.17;100.00;99910.91;5549649;32;34005;-70
2022/08/23 02:21:18;;;;;;;12.68;8.18;;;;;;;18.20;100.00;99916.63;5548805;32;34031;-71
2022/08/23 02:24:23;;;;;;;11.85;8.38;;;;;;;18.24;100.00;99920.50;5549862;32;33832;-71
2022/08/23 02:27:26;;;;;;;12.23;7.97;;;;;;;18.09;100.00;99914.72;5549725;32;34052;-70
2022/08/23 02:30:30;;;;;;;15.23;8.70;;;;;;;18.16;100.00;99922.66;5542708;32;228615;-71
2022/08/23 02:33:34;;;;;;;12.45;7.45;;;;;;;18.22;100.00;99916.41;5549364;32;34631;-70
2022/08/23 02:36:37;;;;;;;11.35;7.45;;;;;;;18.28;100.00;99922.72;5548142;32;33908;-71
2022/08/23 02:39:41;;;;;;;11.00;7.68;;;;;;;18.30;100.00;99920.62;5548607;32;33162;-70
2022/08/23 02:42:45;;;;;;;10.13;7.25;;;;;;;18.32;100.00;99929.28;5549209;32;34042;-71
2022/08/23 02:45:50;;;;;;;13.32;7.57;;;;;;;18.40;100.00;99920.88;5549666;32;34779;-71
2022/08/23 02:48:52;;;;;;;12.30;7.97;;;;;;;18.37;100.00;99932.09;5551347;32;34928;-71
2022/08/23 02:51:56;;;;;;;11.68;8.23;;;;;;;18.28;100.00;99934.28;5551684;32;34411;-71
2022/08/23 02:54:58;;;;;;;20.37;8.00;;;;;;;18.23;100.00;99936.84;5551708;32;35227;-71
2022/08/23 02:58:01;;;;;;;11.40;7.75;;;;;;;18.31;100.00;99949.94;5551985;32;33902;-70
2022/08/23 03:01:04;;;;;;;15.27;8.63;;;;;;;18.31;100.00;99951.78;5551816;32;34575;-70
2022/08/23 03:04:09;;;;;;;13.40;8.98;;;;;;;18.30;100.00;99947.50;5551559;32;34681;-71
2022/08/23 03:07:12;;;;;;;12.75;8.68;;;;;;;18.36;100.00;99949.25;5551577;32;33992;-71
2022/08/23 03:10:15;;;;;;;11.70;8.68;;;;;;;18.32;100.00;99945.38;5551588;32;34057;-71
2022/08/23 03:13:19;;;;;;;16.25;9.05;;;;;;;18.27;100.00;99953.31;5550662;32;34018;-71
2022/08/23 03:16:23;;;;;;;13.68;8.60;;;;;;;18.27;100.00;99958.66;5551465;32;34669;-71
2022/08/23 03:19:26;;;;;;;10.13;8.73;;;;;;;18.26;100.00;99955.16;5551285;32;34156;-71
2022/08/23 03:22:29;;;;;;;12.63;8.82;;;;;;;18.26;100.00;99960.53;5551773;32;34592;-71
2022/08/23 03:25:31;;;;;;;19.90;9.57;;;;;;;18.31;100.00;99963.34;5551478;32;34697;-71
2022/08/23 03:28:38;;;;;;;13.70;8.60;;;;;;;18.36;100.00;99968.03;5551337;32;33951;-71
2022/08/23 03:31:42;;;;;;;12.65;9.15;;;;;;;18.46;100.00;99968.31;5551351;32;34359;-71
2022/08/23 03:34:45;;;;;;;12.90;8.85;;;;;;;18.59;100.00;99970.81;5551364;32;34301;-71
2022/08/23 03:37:48;;;;;;;12.25;8.43;;;;;;;18.50;100.00;99964.13;5551308;32;33865;-71
2022/08/23 03:40:57;;;;;;;15.82;8.93;;;;;;;18.63;100.00;99964.78;5549916;32;32763;-71
2022/08/23 03:43:59;;;;;;;15.70;9.68;;;;;;;18.58;100.00;99966.53;5551397;32;34700;-71
2022/08/23 03:47:04;;;;;;;14.50;9.80;;;;;;;18.39;100.00;99965.75;5550535;32;33880;-71
2022/08/23 03:50:07;;;;;;;13.60;9.50;;;;;;;18.27;100.00;99970.25;5551410;32;34784;-71
2022/08/23 03:53:13;;;;;;;14.55;9.75;;;;;;;18.27;100.00;99967.56;5551291;32;34004;-71
2022/08/23 03:56:34;;;;;;;17.98;9.85;;;;;;;18.28;100.00;99976.44;5550733;32;34523;-71
2022/08/23 03:59:39;;;;;;;16.92;8.80;;;;;;;18.27;100.00;99978.28;5550407;32;33923;-70
2022/08/23 04:02:42;;;;;;;16.15;9.15;;;;;;;18.36;100.00;99978.78;5551239;32;34267;-70
2022/08/23 04:05:45;;;;;;;17.52;9.60;;;;;;;18.34;100.00;99984.41;5551187;32;33858;-69
2022/08/23 04:08:48;;;;;;;15.73;9.52;;;;;;;18.35;100.00;99987.91;5550997;32;34683;-70
2022/08/23 04:11:52;;;;;;;17.20;9.70;;;;;;;18.53;100.00;99995.91;5550979;32;33942;-70
2022/08/23 04:14:54;;;;;;;14.98;10.00;;;;;;;18.54;100.00;100003.75;5550826;32;34921;-70
2022/08/23 04:17:58;;;;;;;18.70;10.45;;;;;;;18.51;100.00;100000.69;5551030;32;33855;-70
2022/08/23 04:21:05;;;;;;;14.68;10.27;;;;;;;18.52;100.00;99996.97;5550682;32;34709;-71
2022/08/23 04:24:08;;;;;;;15.10;10.90;;;;;;;18.57;100.00;99997.94;5550913;32;34396;-70
2022/08/23 04:27:11;;;;;;;18.62;10.45;;;;;;;18.75;100.00;100002.41;5551041;32;34122;-71
2022/08/23 04:30:14;;;;;;;16.95;10.27;;;;;;;18.77;100.00;99996.81;5550794;32;34604;-71
2022/08/23 04:33:21;;;;;;;22.83;15.05;;;;;;;18.76;100.00;99987.13;5550896;32;34056;-71
2022/08/23 04:36:25;;;;;;;28.25;16.35;;;;;;;18.86;100.00;99998.12;5550709;32;33952;-71
2022/08/23 04:42:16;;;;;;;32.73;17.20;;;;;;;18.84;100.00;100003.72;5550034;32;32443;-71
2022/08/23 04:42:56;;;;;;;34.72;16.87;;;;;;;18.94;100.00;99998.59;5550689;32;34646;-71
2022/08/23 04:45:59;;;;;;;26.52;16.52;;;;;;;19.06;100.00;100006.69;5549928;32;33972;-71
2022/08/23 04:49:03;;;;;;;27.45;16.02;;;;;;;19.09;100.00;100012.44;5549977;32;34269;-70
2022/08/23 04:52:06;;;;;;;25.30;16.15;;;;;;;19.15;100.00;100020.63;5550032;32;34290;-71
2022/08/23 04:55:09;;;;;;;28.33;16.67;;;;;;;19.06;100.00;100015.59;5550464;32;34411;-71
2022/08/23 04:58:13;;;;;;;24.52;15.63;;;;;;;19.06;100.00;100020.16;5550868;32;33879;-70
2022/08/23 05:01:16;;;;;;;27.42;15.95;;;;;;;19.06;100.00;100023.66;5550781;32;34306;-70
2022/08/23 05:04:19;;;;;;;26.62;16.65;;;;;;;19.15;100.00;100028.69;5550432;32;34055;-71
2022/08/23 05:07:22;;;;;;;25.33;16.48;;;;;;;19.16;100.00;100036.53;5550599;32;34628;-71
2022/08/23 05:10:45;;;;;;;25.33;15.65;;;;;;;19.33;100.00;100033.94;5549355;32;33312;-71
2022/08/23 05:13:48;;;;;;;25.73;15.35;;;;;;;19.37;100.00;100030.56;5550265;32;34771;-71
2022/08/23 05:16:50;;;;;;;22.80;15.02;;;;;;;19.45;100.00;100030.28;5550069;32;33939;-71
2022/08/23 05:19:53;;;;;;;24.17;15.68;;;;;;;19.55;100.00;100039.63;5550058;32;34007;-70
2022/08/23 05:22:56;;;;;;;19.12;12.00;;;;;;;19.65;100.00;100032.59;5550108;32;34199;-71
2022/08/23 05:26:00;;;;;;;17.85;10.10;;;;;;;19.74;100.00;100044.66;5550419;32;34708;-71
2022/08/23 05:29:04;;;;;;;14.82;9.63;;;;;;;19.67;100.00;100038.56;5549991;32;34770;-71
2022/08/23 05:32:07;;;;;;;18.98;12.30;;;;;;;19.68;100.00;100042.88;5549335;32;32569;-71
2022/08/23 05:35:30;;;;;;;16.27;10.23;;;;;;;19.75;100.00;100048.94;5549534;32;34801;-71
2022/08/23 05:38:53;;;;;;;20.33;12.15;;;;;;;19.68;100.00;100048.28;5549953;32;34175;-71
2022/08/23 05:42:17;;;;;;;23.48;12.35;;;;;;;19.66;100.00;100058.44;5549447;32;34095;-71
2022/08/23 05:45:40;;;;;;;19.60;11.80;;;;;;;19.85;100.00;100061.81;5548496;32;34942;-70
2022/08/23 05:49:04;;;;;;;23.98;14.35;;;;;;;19.95;100.00;100072.81;5549402;32;34248;-70
2022/08/23 05:52:27;;;;;;;26.42;15.10;;;;;;;19.96;100.00;100079.84;5549359;32;34903;-70
2022/08/23 05:55:50;;;;;;;26.52;14.75;;;;;;;19.96;100.00;100080.66;5548598;32;35195;-70
2022/08/23 05:59:15;;;;;;;25.92;15.40;;;;;;;20.01;100.00;100088.03;5549576;32;34055;-70
2022/08/23 06:02:37;;;;;;;26.50;16.10;;;;;;;20.10;100.00;100085.78;5549520;32;34163;-70
2022/08/23 06:06:01;;;;;;;26.67;16.00;;;;;;;20.03;100.00;100085.94;5548384;32;34878;-70
2022/08/23 06:09:24;;;;;;;23.73;15.15;;;;;;;20.10;100.00;100083.09;5549286;32;34236;-71
2022/08/23 06:12:47;;;;;;;23.25;15.10;;;;;;;20.03;100.00;100091.31;5549129;32;34180;-70
2022/08/23 06:16:12;;;;;;;21.23;13.93;;;;;;;20.14;100.00;100103.12;5549175;32;34919;-70
2022/08/23 06:19:17;;;;;;;20.83;13.77;;;;;;;20.32;100.00;100117.28;5549899;32;34569;-70
2022/08/23 06:22:22;;;;;;;20.92;13.50;;;;;;;20.37;100.00;100112.00;5548987;32;32384;-70
2022/08/23 06:25:25;;;;;;;21.52;13.45;;;;;;;20.41;100.00;100116.91;5551776;32;33807;-70
2022/08/23 06:28:29;;;;;;;20.37;12.90;;;;;;;20.54;100.00;100117.44;5551826;32;34004;-70
2022/08/23 06:31:45;;;;;;;19.87;12.63;;;;;;;20.61;100.00;100118.16;5550508;32;32374;-70
2022/08/23 06:34:48;;;;;;;19.55;12.60;;;;;;;20.78;100.00;100116.31;5551733;32;34235;-70
2022/08/23 06:37:51;;;;;;;22.65;14.45;;;;;;;20.75;100.00;100130.28;5550170;32;32870;-70
2022/08/23 06:40:59;;;;;;;17.75;12.82;;;;;;;20.69;100.00;100131.25;5550420;32;32651;-70
2022/08/23 06:44:03;;;;;;;17.75;12.98;;;;;;;20.71;100.00;100122.91;5550103;32;34204;-70
2022/08/23 06:47:07;;;;;;;26.23;13.15;;;;;;;20.78;100.00;100128.97;5551572;32;34647;-70
2022/08/23 06:50:10;;;;;;;19.27;13.43;;;;;;;20.90;100.00;100121.66;5550785;32;34022;-70
2022/08/23 06:53:17;;;;;;;20.83;12.40;;;;;;;21.02;100.00;100127.00;5550638;32;32466;-69
2022/08/23 06:56:24;;;;;;;17.52;11.63;;;;;;;21.07;100.00;100127.91;5551427;32;34641;-69
2022/08/23 06:59:27;;;;;;;16.05;11.68;;;;;;;21.33;100.00;100131.09;5550259;32;33573;-69
2022/08/23 07:02:30;;;;;;;15.05;11.38;;;;;;;21.31;100.00;100128.63;5550737;32;34322;-69
2022/08/23 07:05:35;;;;;;;14.65;10.65;;;;;;;21.19;100.00;100130.59;5551663;32;33924;-69
2022/08/23 07:08:40;;;;;;;13.93;10.43;;;;;;;21.46;100.00;100130.75;5550309;32;32725;-69
2022/08/23 07:11:42;;;;;;;13.73;9.60;;;;;;;21.85;100.00;100142.44;5551219;32;33974;-69
2022/08/23 07:14:45;;;;;;;15.60;9.70;;;;;;;22.15;100.00;100134.00;5551271;32;34132;-69
2022/08/23 07:17:48;;;;;;;15.60;10.40;;;;;;;22.20;100.00;100143.00;5550257;32;32848;-69
2022/08/23 07:20:56;;;;;;;15.35;9.27;;;;;;;21.84;100.00;100144.34;5550666;32;33721;-69
2022/08/23 07:23:59;;;;;;;12.73;9.40;;;;;;;21.91;100.00;100153.09;5551363;32;34670;-69
2022/08/23 07:27:08;;;;;;;15.57;10.15;;;;;;;21.93;100.00;100150.97;5551197;32;34589;-68
2022/08/23 07:30:13;;;;;;;11.75;9.27;;;;;;;22.08;100.00;100153.09;5550349;32;33028;-69
2022/08/23 07:33:16;;;;;;;14.25;8.75;;;;;;;22.42;100.00;100143.00;5549940;32;34071;-69
2022/08/23 07:36:21;;;;;;;11.98;9.05;;;;;;;22.81;97.49;100144.59;5551167;32;34075;-68
2022/08/23 07:39:30;;;;;;;14.00;9.23;;;;;;;22.54;99.30;100141.84;5550885;32;34024;-69
2022/08/23 07:42:33;;;;;;;12.70;8.82;;;;;;;22.85;97.27;100144.94;5537370;32;32605;-70
2022/08/23 07:45:37;;;;;;;10.32;7.45;;;;;;;23.02;93.65;100148.34;5551000;32;34065;-69
2022/08/23 07:48:40;;;;;;;13.38;7.07;;;;;;;23.63;88.17;100149.75;5551004;32;33962;-70
2022/08/23 07:51:57;;;;;;;11.27;7.50;;;;;;;23.88;87.65;100143.69;5551147;32;34203;-70
2022/08/23 07:55:00;;;;;;;11.45;7.78;;;;;;;24.33;86.88;100156.75;5551049;32;34663;-70
2022/08/23 07:58:04;;;;;;;12.00;7.68;;;;;;;24.94;81.94;100149.69;5550998;32;34186;-70
2022/08/23 08:01:19;;;;;;;10.38;8.27;;;;;;;24.15;81.14;100155.28;5550965;32;34463;-70
2022/08/23 08:04:23;;;;;;;11.25;7.30;;;;;;;24.76;80.75;100152.87;5551205;32;34724;-69
2022/08/23 08:07:26;;;;;;;10.93;7.97;;;;;;;25.40;78.44;100156.03;5550820;32;34203;-70
2022/08/23 08:10:35;;;;;;;12.73;7.82;;;;;;;25.47;75.96;100148.41;5550958;32;34038;-68
2022/08/23 08:13:43;;;;;;;13.90;7.45;;;;;;;24.74;78.53;100149.59;5549795;32;32960;-69
2022/08/23 08:16:49;;;;;;;12.82;7.12;;;;;;;24.54;81.70;100150.34;5550117;32;32601;-70
2022/08/23 08:19:52;;;;;;;9.32;7.22;;;;;;;26.05;73.98;100158.97;5550792;32;33911;-70
2022/08/23 08:23:02;;;;;;;7.97;6.40;;;;;;;27.85;65.74;100150.16;5549279;32;32357;-70
2022/08/23 08:26:07;;;;;;;12.23;6.95;;;;;;;28.70;60.91;100165.91;5536808;32;33112;-70
2022/08/23 08:29:10;;;;;;;8.75;6.95;;;;;;;28.62;59.63;100163.81;5549875;32;33764;-69
2022/08/23 08:32:15;;;;;;;10.45;7.18;;;;;;;28.53;58.09;100166.37;5550491;32;34127;-68
2022/08/23 08:35:18;;;;;;;9.52;6.60;;;;;;;27.75;61.08;100168.53;5549464;32;32946;-69
2022/08/23 08:38:21;;;;;;;9.95;6.03;;;;;;;26.73;66.52;100177.31;5549513;32;33682;-69
2022/08/23 08:41:39;;;;;;;8.10;6.10;;;;;;;25.90;69.24;100185.09;5550444;32;34224;-69
2022/08/23 08:44:48;;;;;;;10.75;6.50;;;;;;;25.73;71.86;100181.03;5550232;32;34185;-69
2022/08/23 08:48:14;;;;;;;8.43;6.43;;;;;;;25.04;74.25;100181.47;5549905;32;34096;-69
2022/08/23 08:51:55;;;;;;;8.05;6.00;;;;;;;24.71;77.70;100184.59;5550731;32;34560;-69
2022/08/23 08:55:09;;;;;;;9.20;6.25;;;;;;;25.00;76.66;100178.47;5549750;32;33127;-69
2022/08/23 08:58:22;;;;;;;8.65;5.90;;;;;;;25.46;73.89;100192.16;5549934;32;32582;-70
2022/08/23 09:01:28;;;;;;;8.73;6.20;;;;;;;25.23;74.06;100185.31;5550234;32;33970;-70
2022/08/23 09:04:31;;;;;;;7.70;6.22;;;;;;;24.73;75.39;100190.56;5550231;32;34633;-70
2022/08/23 09:07:52;;;;;;;7.12;5.80;;;;;;;25.72;72.21;100182.94;5550363;32;34273;-69
2022/08/23 09:11:01;;;;;;;8.45;5.10;;;;;;;26.23;68.63;100188.38;5549415;32;33680;-69
2022/08/23 09:14:26;;;;;;;4.95;3.42;;;;;;;27.44;63.35;100182.38;5549032;32;33607;-69
2022/08/23 09:17:36;;;;;;;6.03;3.97;;;;;;;28.31;59.19;100187.91;5549947;32;34551;-67
2022/08/23 09:20:42;;;;;;;11.95;6.30;;;;;;;29.62;53.49;100182.66;5550156;32;34052;-67
2022/08/23 09:23:48;;;;;;;7.28;4.65;;;;;;;29.93;51.67;100185.69;5549475;32;32416;-68
2022/08/23 09:27:03;;;;;;;7.20;3.87;;;;;;;31.03;49.85;100184.66;5538146;32;32432;-69
2022/08/23 09:30:07;;;;;;;6.37;4.80;;;;;;;32.87;43.47;100191.47;5549309;32;34662;-69
2022/08/23 09:33:20;;;;;;;9.82;4.85;;;;;;;33.04;43.52;100176.91;5549512;32;34077;-69
2022/08/23 09:36:25;;;;;;;5.62;3.95;;;;;;;30.52;49.04;100185.69;5549068;32;33667;-69
2022/08/23 09:39:33;;;;;;;5.25;4.10;;;;;;;28.90;54.55;100182.84;5549706;32;34116;-68
2022/08/23 09:42:38;;;;;;;6.75;4.20;;;;;;;28.04;59.78;100182.97;5548668;32;33109;-68
2022/08/23 09:45:48;;;;;;;6.35;4.37;;;;;;;27.33;61.60;100186.25;5550126;32;34717;-68
2022/08/23 09:48:54;;;;;;;7.05;4.32;;;;;;;27.02;61.72;100191.06;5550353;32;34725;-69
2022/08/23 09:52:09;;;;;;;7.18;4.10;;;;;;;27.25;60.52;100182.22;5549810;32;34121;-69
2022/08/23 09:55:47;;;;;;;7.40;4.07;;;;;;;26.59;61.36;100186.34;5549089;32;34195;-69
2022/08/23 09:58:52;;;;;;;6.68;4.28;;;;;;;28.05;58.16;100185.41;5538624;32;34624;-69
2022/08/23 10:01:58;;;;;;;7.07;4.20;;;;;;;28.30;56.50;100180.84;5550064;32;33966;-70
2022/08/23 10:05:17;;;;;;;6.47;4.80;;;;;;;27.59;58.28;100190.44;5550131;32;34154;-69
2022/08/23 10:08:33;;;;;;;8.25;4.15;;;;;;;27.37;56.32;100189.22;5549644;32;35526;-69
2022/08/23 10:11:46;;;;;;;7.62;4.57;;;;;;;27.06;58.87;100188.63;5549811;32;34029;-68
2022/08/23 10:14:53;;;;;;;8.73;4.00;;;;;;;26.66;63.67;100181.44;5536056;32;32897;-68
2022/08/23 10:18:06;;;;;;;7.62;4.43;;;;;;;26.67;62.00;100177.62;5549478;32;35234;-68
2022/08/23 10:21:12;;;;;;;4.25;3.83;;;;;;;26.88;63.35;100183.78;5547938;32;33659;-68
2022/08/23 10:25:02;;;;;;;7.62;4.62;;;;;;;26.00;63.90;100187.00;5549429;32;34130;-69
2022/08/23 10:32:32;;;;;;;5.40;4.00;;;;;;;25.80;64.98;100187.81;5548145;32;33204;-69
2022/08/23 10:35:47;;;;;;;9.18;4.87;;;;;;;26.19;63.50;100181.81;5548804;32;33967;-68
2022/08/23 10:39:00;;;;;;;8.15;4.72;;;;;;;26.21;65.56;100179.63;5548970;32;33863;-69
2022/08/23 10:42:45;;;;;;;8.13;4.90;;;;;;;25.92;66.20;100182.13;5548776;32;34667;-68
2022/08/23 10:45:48;;;;;;;8.57;4.60;;;;;;;28.45;56.83;100176.03;5547824;32;32454;-70
2022/08/23 10:48:57;;;;;;;5.03;3.85;;;;;;;30.17;48.93;100187.16;5547898;32;32813;-68
2022/08/23 10:52:03;;;;;;;5.90;4.32;;;;;;;29.49;51.46;100178.72;5548078;32;34171;-68
2022/08/23 10:55:34;;;;;;;5.97;3.55;;;;;;;30.02;48.67;100178.41;5547935;32;32658;-69
2022/08/23 10:58:50;;;;;;;7.05;3.00;;;;;;;31.12;46.52;100182.81;5548843;32;35181;-69
2022/08/23 11:02:18;;;;;;;6.62;3.60;;;;;;;32.06;45.69;100184.62;5549068;32;33944;-69
2022/08/23 11:05:28;;;;;;;5.35;2.90;;;;;;;32.16;43.60;100173.41;5548461;32;34055;-69
2022/08/23 11:08:44;;;;;;;5.45;3.17;;;;;;;31.17;45.29;100171.72;5547872;32;32906;-69
2022/08/23 11:12:09;;;;;;;6.95;3.33;;;;;;;30.04;48.06;100176.19;5550025;32;32615;-68
2022/08/23 11:15:26;;;;;;;3.90;3.00;;;;;;;29.75;50.06;100169.03;5550243;32;33026;-68
2022/08/23 11:18:32;;;;;;;4.95;3.25;;;;;;;29.32;51.45;100171.09;5550696;32;32438;-68
2022/08/23 11:21:43;;;;;;;4.78;3.15;;;;;;;28.53;53.14;100169.91;5550105;32;33366;-69
2022/08/23 11:24:51;;;;;;;4.93;2.83;;;;;;;28.27;55.27;100170.50;5550314;32;32634;-68
2022/08/23 11:28:26;;;;;;;7.10;3.10;;;;;;;29.53;52.53;100176.25;5550188;32;32836;-68
2022/08/23 11:31:38;;;;;;;7.47;3.12;;;;;;;32.52;42.75;100173.22;5549038;32;34199;-69
2022/08/23 11:35:15;;;;;;;4.87;2.92;;;;;;;32.01;43.55;100173.78;5551013;32;34898;-69
2022/08/23 11:38:46;;;;;;;4.68;2.55;;;;;;;32.81;41.96;100169.94;5537688;32;33920;-67
2022/08/23 11:41:52;;;;;;;3.53;2.90;;;;;;;32.95;40.67;100163.16;5537550;32;32942;-67
2022/08/23 11:44:56;;;;;;;6.37;3.53;;;;;;;33.90;38.13;100166.69;5551538;32;34030;-67
2022/08/23 11:48:13;;;;;;;8.20;4.47;;;;;;;33.99;37.93;100167.47;5551420;32;34748;-67
2022/08/23 11:51:25;;;;;;;7.77;3.83;;;;;;;31.50;42.86;100153.94;5550341;32;33933;-68
2022/08/23 11:54:38;;;;;;;4.93;2.95;;;;;;;31.04;44.03;100153.38;5551254;32;34154;-67
2022/08/23 11:57:53;;;;;;;6.12;3.47;;;;;;;30.72;44.99;100156.28;5550317;32;32506;-68
2022/08/23 12:01:05;;;;;;;5.97;3.10;;;;;;;31.89;41.93;100155.16;5549949;32;32712;-68
2022/08/23 12:04:25;;;;;;;3.47;2.90;;;;;;;33.40;39.20;100157.41;5550954;32;34373;-68
2022/08/23 12:07:45;;;;;;;4.72;2.80;;;;;;;36.00;33.14;100153.63;5550314;32;32980;-68
2022/08/23 12:10:49;;;;;;;5.35;2.87;;;;;;;35.65;34.73;100159.53;5551063;32;34591;-67
2022/08/23 12:13:59;;;;;;;7.62;3.30;;;;;;;31.92;41.69;100147.09;5549858;32;32904;-68
2022/08/23 12:17:24;;;;;;;7.87;2.83;;;;;;;30.27;44.70;100157.97;5549922;32;32891;-68
2022/08/23 12:20:31;;;;;;;3.30;2.60;;;;;;;32.50;40.17;100161.75;5549829;32;34179;-68
2022/08/23 12:23:46;;;;;;;3.78;2.78;;;;;;;34.53;36.54;100156.75;5550629;32;34916;-68
2022/08/23 12:26:58;;;;;;;7.05;3.35;;;;;;;37.11;31.04;100154.09;5550285;32;33294;-68
2022/08/23 12:30:19;;;;;;;4.20;2.90;;;;;;;36.36;31.52;100155.66;5550266;32;33097;-68
2022/08/23 12:33:42;;;;;;;4.78;2.90;;;;;;;34.25;35.78;100158.34;5549708;32;32475;-68
2022/08/23 12:36:45;;;;;;;5.07;2.70;;;;;;;33.03;38.52;100148.63;5550415;32;33887;-68
2022/08/23 12:39:58;;;;;;;6.37;2.85;;;;;;;31.22;43.70;100148.87;5549942;32;33090;-68
2022/08/23 12:43:09;;;;;;;5.12;2.65;;;;;;;30.90;44.33;100145.16;5550514;32;34800;-68
2022/08/23 12:46:29;;;;;;;4.43;3.00;;;;;;;30.72;45.33;100157.09;5549783;32;32839;-68
2022/08/23 12:49:34;;;;;;;5.10;3.53;;;;;;;30.21;46.74;100155.34;5550590;32;34498;-68
2022/08/23 12:52:37;;;;;;;7.35;3.42;;;;;;;29.24;45.83;100146.34;5550244;32;34261;-68
2022/08/23 12:55:44;;;;;;;5.82;3.00;;;;;;;29.53;46.17;100152.41;5549997;32;32817;-67
2022/08/23 12:58:52;;;;;;;3.90;2.80;;;;;;;29.43;45.70;100158.09;5549849;32;32414;-67
2022/08/23 13:01:55;;;;;;;8.15;3.20;;;;;;;29.20;47.42;100157.00;5550338;32;33902;-67
2022/08/23 13:05:08;;;;;;;4.62;3.33;;;;;;;29.73;46.54;100159.47;5550674;32;34618;-68
2022/08/23 13:08:31;;;;;;;5.32;3.70;;;;;;;33.15;39.82;100156.25;5550467;32;34043;-67
2022/08/23 13:11:37;;;;;;;5.85;3.90;;;;;;;32.17;41.31;100150.31;5536620;32;34164;-68
2022/08/23 13:14:39;;;;;;;4.25;3.50;;;;;;;30.27;43.99;100150.56;5549548;32;32754;-67
2022/08/23 13:17:42;;;;;;;4.07;3.28;;;;;;;31.46;41.19;100147.47;5549802;32;32508;-68
2022/08/23 13:20:45;;;;;;;7.05;3.83;;;;;;;31.18;42.23;100148.66;5550068;32;34066;-66
2022/08/23 13:23:49;;;;;;;5.43;3.25;;;;;;;30.36;43.80;100150.66;5549430;32;33424;-67
2022/08/23 13:26:52;;;;;;;7.28;3.42;;;;;;;28.84;47.62;100143.06;5550178;32;33668;-66
2022/08/23 13:30:18;;;;;;;6.28;3.50;;;;;;;28.64;49.20;100151.50;5550197;32;33965;-67
2022/08/23 13:33:21;;;;;;;4.85;3.50;;;;;;;27.78;51.77;100144.25;5550135;32;34890;-67
2022/08/23 13:36:24;;;;;;;6.78;3.95;;;;;;;27.15;53.96;100144.19;5549325;32;33202;-67
2022/08/23 13:39:29;;;;;;;7.12;3.80;;;;;;;26.72;58.68;100142.22;5550151;32;33852;-67
2022/08/23 13:42:54;;;;;;;7.07;4.32;;;;;;;26.45;61.89;100137.16;5549529;32;33311;-66
2022/08/23 13:46:09;;;;;;;6.72;3.97;;;;;;;26.20;63.13;100132.59;5548984;32;32673;-68
2022/08/23 13:49:16;;;;;;;5.82;4.10;;;;;;;26.09;64.25;100136.44;5549301;32;34637;-68
2022/08/23 13:52:19;;;;;;;9.48;4.15;;;;;;;26.01;66.55;100142.41;5549705;32;33978;-68
2022/08/23 13:55:54;;;;;;;5.65;4.32;;;;;;;26.05;67.97;100135.34;5549605;32;34459;-68
2022/08/23 13:59:01;;;;;;;9.23;4.50;;;;;;;25.61;71.29;100137.06;5549040;32;32471;-68
2022/08/23 14:02:10;;;;;;;5.97;4.85;;;;;;;25.53;72.80;100136.47;5548482;32;32100;-67
2022/08/23 14:05:13;;;;;;;6.60;4.62;;;;;;;25.96;70.99;100145.97;5549212;32;34206;-66
2022/08/23 14:08:16;;;;;;;4.80;3.95;;;;;;;26.66;67.78;100140.62;5548065;32;33773;-68
2022/08/23 14:11:19;;;;;;;7.28;4.30;;;;;;;26.51;67.33;100140.66;5549579;32;33969;-67
2022/08/23 14:14:22;;;;;;;9.65;4.20;;;;;;;25.86;70.16;100143.25;5547936;32;32692;-68
2022/08/23 14:17:26;;;;;;;9.48;4.07;;;;;;;27.25;65.86;100135.91;5547618;32;33335;-66
2022/08/23 14:20:29;;;;;;;6.80;3.92;;;;;;;28.58;59.31;100146.38;5547201;32;35066;-66
2022/08/23 14:23:45;;;;;;;4.78;3.85;;;;;;;28.10;61.40;100141.72;5547887;32;34119;-67
2022/08/23 14:26:47;;;;;;;4.53;3.90;;;;;;;27.18;63.31;100149.03;5548466;32;34828;-67
2022/08/23 14:29:53;;;;;;;5.10;3.87;;;;;;;28.15;59.98;100148.25;5549338;32;34533;-67
2022/08/23 14:32:57;;;;;;;5.00;3.62;;;;;;;29.94;54.03;100149.84;5548672;32;34023;-67
2022/08/23 14:36:00;;;;;;;5.28;4.03;;;;;;;28.64;57.97;100145.22;5547848;32;32467;-68